createdAt,value
2023-05-10T00:00:49.577Z,15.5
2023-05-10T00:02:50.196Z,15.5
2023-05-10T00:04:49.872Z,15.5
2023-05-10T00:06:49.595Z,15.5
2023-05-10T00:08:50.186Z,15.5
2023-05-10T00:10:49.838Z,15.5
2023-05-10T00:12:49.447Z,15.4
2023-05-10T00:14:50.077Z,15.4
2023-05-10T00:16:49.799Z,15.4
2023-05-10T00:18:49.457Z,15.3
2023-05-10T00:20:50.088Z,15.3
2023-05-10T00:22:49.706Z,15.2
2023-05-10T00:24:49.420Z,15.2
2023-05-10T00:26:50.038Z,15.2
2023-05-10T00:28:49.679Z,15.1
2023-05-10T00:30:50.310Z,15.0
2023-05-10T00:32:49.873Z,15.0
2023-05-10T00:34:49.557Z,15.0
2023-05-10T00:36:50.140Z,14.9
2023-05-10T00:38:49.728Z,14.8
2023-05-10T00:40:50.291Z,14.7
2023-05-10T00:42:49.965Z,14.6
2023-05-10T00:44:49.540Z,14.6
2023-05-10T00:46:50.097Z,14.6
2023-05-10T00:48:49.773Z,14.5
2023-05-10T00:50:50.313Z,14.4
2023-05-10T00:52:49.886Z,14.4
2023-05-10T00:54:49.516Z,14.4
2023-05-10T00:56:50.124Z,14.3
2023-05-10T00:58:49.795Z,14.2
2023-05-10T01:00:49.409Z,14.2
2023-05-10T01:02:50.021Z,14.1
2023-05-10T01:04:49.689Z,14.1
2023-05-10T01:06:50.287Z,14.0
2023-05-10T01:08:49.818Z,14.0
2023-05-10T01:10:49.346Z,14.0
2023-05-10T01:12:49.988Z,13.9
2023-05-10T01:14:49.576Z,13.9
2023-05-10T01:16:50.246Z,13.8
2023-05-10T01:18:49.881Z,13.8
2023-05-10T01:20:49.541Z,13.7
2023-05-10T01:22:50.139Z,13.7
2023-05-10T01:24:49.739Z,13.7
2023-05-10T01:26:50.330Z,13.6
2023-05-10T01:28:49.925Z,13.5
2023-05-10T01:30:49.562Z,13.5
2023-05-10T01:32:50.164Z,13.5
2023-05-10T01:34:49.809Z,13.4
2023-05-10T01:36:49.454Z,13.4
2023-05-10T01:38:49.997Z,13.4
2023-05-10T01:40:49.655Z,13.4
2023-05-10T01:42:50.238Z,13.4
2023-05-10T01:44:49.808Z,13.3
2023-05-10T01:46:49.452Z,13.2
2023-05-10T01:48:50.058Z,13.2
2023-05-10T01:50:49.614Z,13.2
2023-05-10T01:52:50.153Z,13.2
2023-05-10T01:54:49.720Z,13.2
2023-05-10T01:56:49.355Z,13.2
2023-05-10T01:58:49.950Z,13.2
2023-05-10T02:00:49.569Z,13.1
2023-05-10T02:02:50.281Z,13.1
2023-05-10T02:04:49.963Z,13.1
2023-05-10T02:06:49.602Z,13.1
2023-05-10T02:08:50.233Z,13.1
2023-05-10T02:10:49.833Z,13.1
2023-05-10T02:12:49.425Z,13.1
2023-05-10T02:14:50.065Z,13.1
2023-05-10T02:16:49.690Z,13.1
2023-05-10T02:18:50.270Z,13.1
2023-05-10T02:20:49.871Z,13.1
2023-05-10T02:22:49.475Z,13.2
2023-05-10T02:24:50.036Z,13.2
2023-05-10T02:26:49.811Z,13.2
2023-05-10T02:28:49.373Z,13.2
2023-05-10T02:30:49.910Z,13.2
2023-05-10T02:32:49.566Z,13.2
2023-05-10T02:34:50.273Z,13.3
2023-05-10T02:36:49.792Z,13.3
2023-05-10T02:38:49.365Z,13.3
2023-05-10T02:40:49.961Z,13.3
2023-05-10T02:42:49.510Z,13.4
2023-05-10T02:44:50.068Z,13.4
2023-05-10T02:46:49.703Z,13.4
2023-05-10T02:48:50.243Z,13.4
2023-05-10T02:50:49.850Z,13.4
2023-05-10T02:52:49.384Z,13.4
2023-05-10T02:54:50.053Z,13.4
2023-05-10T02:56:49.659Z,13.4
2023-05-10T02:58:50.192Z,13.5
2023-05-10T03:00:49.735Z,13.5
2023-05-10T03:02:49.433Z,13.5
2023-05-10T03:04:50.199Z,13.6
2023-05-10T03:06:49.794Z,13.6
2023-05-10T03:08:49.358Z,13.6
2023-05-10T03:10:49.954Z,13.6
2023-05-10T03:12:49.598Z,13.6
2023-05-10T03:14:50.261Z,13.6
2023-05-10T03:16:49.834Z,13.6
2023-05-10T03:18:49.544Z,13.6
2023-05-10T03:20:50.146Z,13.6
2023-05-10T03:22:49.710Z,13.6
2023-05-10T03:24:50.374Z,13.6
2023-05-10T03:26:50.032Z,13.6
2023-05-10T03:28:49.547Z,13.6
2023-05-10T03:30:50.180Z,13.6
2023-05-10T03:32:49.753Z,13.6
2023-05-10T03:34:49.381Z,13.6
2023-05-10T03:36:50.008Z,13.6
2023-05-10T03:38:49.562Z,13.7
2023-05-10T03:40:50.157Z,13.7
2023-05-10T03:42:49.827Z,13.7
2023-05-10T03:44:49.372Z,13.7
2023-05-10T03:46:50.206Z,13.6
2023-05-10T03:48:49.927Z,13.7
2023-05-10T03:50:49.593Z,13.70
2023-05-10T03:52:50.112Z,13.66
2023-05-10T03:54:49.787Z,13.6
2023-05-10T03:56:49.397Z,13.6
2023-05-10T03:58:50.019Z,13.56
2023-05-10T04:00:49.685Z,13.55
2023-05-10T04:02:50.425Z,13.49
2023-05-10T04:04:50.160Z,13.49
2023-05-10T04:06:49.809Z,13.48
2023-05-10T04:08:49.369Z,13.46
2023-05-10T04:10:49.965Z,13.45
2023-05-10T04:12:49.666Z,13.49
2023-05-10T04:14:50.229Z,13.48
2023-05-10T04:16:49.850Z,13.43
2023-05-10T04:18:49.401Z,13.46
2023-05-10T04:20:49.989Z,13.42
2023-05-10T04:22:49.648Z,13.45
2023-05-10T04:24:50.212Z,13.43
2023-05-10T04:26:49.744Z,13.39
2023-05-10T04:28:50.321Z,13.42
2023-05-10T04:30:49.949Z,13.42
2023-05-10T04:32:49.591Z,13.41
2023-05-10T04:34:50.274Z,13.43
2023-05-10T04:36:49.839Z,13.38
2023-05-10T04:38:49.348Z,13.38
2023-05-10T04:40:49.903Z,13.35
2023-05-10T04:42:49.532Z,13.38
2023-05-10T04:44:50.159Z,13.39
2023-05-10T04:46:49.810Z,13.43
2023-05-10T04:48:49.458Z,13.42
2023-05-10T04:50:50.043Z,13.4
2023-05-10T04:52:49.623Z,13.4
2023-05-10T04:54:50.195Z,13.43
2023-05-10T04:56:49.809Z,13.46
2023-05-10T04:58:49.423Z,13.45
2023-05-10T05:00:50.021Z,13.4
2023-05-10T05:02:49.696Z,13.4
2023-05-10T05:04:49.408Z,13.4
2023-05-10T05:06:51.698Z,13.4
2023-05-10T05:08:50.396Z,13.4
2023-05-10T05:10:50.244Z,13.39
2023-05-10T05:12:49.939Z,13.39
2023-05-10T05:14:49.518Z,13.4
2023-05-10T05:16:50.148Z,13.4
2023-05-10T05:18:49.773Z,13.4
2023-05-10T05:20:50.306Z,13.4
2023-05-10T05:22:49.955Z,13.4
2023-05-10T05:24:49.485Z,13.50
2023-05-10T05:26:50.034Z,13.48
2023-05-10T05:28:49.605Z,13.5
2023-05-10T05:30:50.221Z,13.5
2023-05-10T05:32:49.843Z,13.5
2023-05-10T05:34:49.515Z,13.6
2023-05-10T05:36:50.115Z,13.6
2023-05-10T05:38:49.668Z,13.6
2023-05-10T05:40:50.299Z,13.6
2023-05-10T05:42:49.918Z,13.6
2023-05-10T05:44:49.548Z,13.6
2023-05-10T05:46:50.183Z,13.68
2023-05-10T05:48:49.707Z,13.7
2023-05-10T05:50:50.294Z,13.7
2023-05-10T05:52:49.947Z,13.8
2023-05-10T05:54:49.555Z,13.8
2023-05-10T05:56:50.192Z,13.8
2023-05-10T05:58:49.800Z,13.8
2023-05-10T06:00:49.425Z,13.83
2023-05-10T06:02:50.107Z,13.8
2023-05-10T06:04:49.913Z,13.84
2023-05-10T06:06:49.596Z,13.82
2023-05-10T06:08:50.162Z,13.83
2023-05-10T06:10:49.742Z,13.83
2023-05-10T06:12:49.414Z,13.90
2023-05-10T06:14:49.992Z,13.9
2023-05-10T06:16:49.580Z,13.9
2023-05-10T06:18:50.159Z,14.0
2023-05-10T06:20:49.714Z,14.0
2023-05-10T06:22:50.294Z,13.99
2023-05-10T06:24:49.829Z,14.03
2023-05-10T06:26:49.480Z,14.06
2023-05-10T06:28:50.009Z,14.06
2023-05-10T06:30:49.609Z,14.06
2023-05-10T06:32:50.165Z,14.06
2023-05-10T06:34:49.888Z,13.94
2023-05-10T06:36:49.485Z,13.89
2023-05-10T06:38:50.098Z,13.93
2023-05-10T06:40:49.734Z,14.13
2023-05-10T06:42:50.285Z,14.24
2023-05-10T06:44:49.854Z,14.3
2023-05-10T06:46:49.489Z,14.35
2023-05-10T06:48:50.176Z,14.44
2023-05-10T06:50:49.790Z,14.48
2023-05-10T06:52:50.625Z,14.54
2023-05-10T06:54:49.936Z,14.6
2023-05-10T06:56:49.536Z,14.67
2023-05-10T06:58:50.171Z,14.74
2023-05-10T07:00:49.917Z,14.8
2023-05-10T07:02:49.581Z,14.75
2023-05-10T07:04:50.347Z,14.9
2023-05-10T07:06:49.962Z,14.98
2023-05-10T07:08:49.538Z,14.87
2023-05-10T07:10:50.089Z,14.88
2023-05-10T07:12:49.798Z,15.03
2023-05-10T07:14:49.448Z,15.05
2023-05-10T07:16:50.106Z,15.15
2023-05-10T07:18:49.683Z,15.28
2023-05-10T07:20:50.305Z,15.19
2023-05-10T07:22:49.905Z,15.12
2023-05-10T07:24:49.451Z,15.12
2023-05-10T07:26:50.090Z,15.29
2023-05-10T07:28:49.636Z,15.32
2023-05-10T07:30:50.228Z,15.42
2023-05-10T07:32:50.012Z,15.32
2023-05-10T07:34:49.662Z,15.39
2023-05-10T07:36:50.232Z,15.49
2023-05-10T07:38:49.877Z,15.49
2023-05-10T07:40:49.517Z,15.80
2023-05-10T07:42:50.213Z,15.52
2023-05-10T07:44:49.850Z,15.52
2023-05-10T07:46:49.400Z,15.52
2023-05-10T07:48:50.045Z,15.42
2023-05-10T07:50:49.656Z,15.39
2023-05-10T07:52:50.251Z,15.39
2023-05-10T07:54:49.856Z,15.29
2023-05-10T07:56:49.514Z,15.12
2023-05-10T07:58:49.989Z,15.18
2023-05-10T08:00:49.579Z,15.02
2023-05-10T08:02:50.270Z,15.02
2023-05-10T08:04:50.021Z,15.06
2023-05-10T08:06:49.611Z,15.09
2023-05-10T08:08:50.226Z,14.98
2023-05-10T08:10:49.826Z,15.01
2023-05-10T08:12:49.375Z,14.91
2023-05-10T08:14:49.940Z,14.92
2023-05-10T08:16:49.536Z,14.95
2023-05-10T08:18:50.161Z,14.98
2023-05-10T08:20:49.795Z,14.91
2023-05-10T08:22:51.671Z,15.01
2023-05-10T08:24:49.522Z,15.17
2023-05-10T08:26:50.149Z,15.33
2023-05-10T08:28:49.752Z,15.42
2023-05-10T08:30:49.349Z,15.73
2023-05-10T08:32:50.001Z,15.69
2023-05-10T08:34:49.718Z,15.86
2023-05-10T08:36:49.368Z,15.86
2023-05-10T08:38:50.355Z,15.89
2023-05-10T08:40:49.558Z,16.03
2023-05-10T08:42:50.163Z,16.24
2023-05-10T08:44:49.890Z,16.16
2023-05-10T08:46:49.577Z,16.18
2023-05-10T08:48:50.203Z,16.27
2023-05-10T08:50:49.788Z,16.25
2023-05-10T08:52:50.323Z,16.01
2023-05-10T08:54:49.913Z,15.87
2023-05-10T08:56:49.987Z,15.90
2023-05-10T08:58:49.614Z,15.80
2023-05-10T09:00:50.228Z,15.38
2023-05-10T09:02:49.890Z,15.43
2023-05-10T09:04:49.701Z,15.31
2023-05-10T09:06:49.461Z,15.32
2023-05-10T09:08:50.091Z,15.42
2023-05-10T09:10:49.693Z,15.49
2023-05-10T09:12:50.341Z,15.66
2023-05-10T09:14:49.950Z,15.83
2023-05-10T09:16:49.648Z,15.80
2023-05-10T09:18:50.277Z,15.89
2023-05-10T09:20:49.958Z,16.13
2023-05-10T09:22:49.552Z,16.30
2023-05-10T09:24:50.170Z,16.50
2023-05-10T09:26:49.742Z,16.71
2023-05-10T09:28:50.317Z,16.82
2023-05-10T09:30:50.011Z,16.86
2023-05-10T09:32:49.605Z,17.0
2023-05-10T09:34:50.214Z,17.0
2023-05-10T09:36:49.773Z,16.96
2023-05-10T09:38:49.431Z,17.05
2023-05-10T09:40:50.025Z,17.12
2023-05-10T09:42:49.627Z,17.12
2023-05-10T09:44:50.204Z,17.14
2023-05-10T09:46:49.807Z,17.15
2023-05-10T09:48:49.413Z,17.06
2023-05-10T09:50:50.001Z,17.04
2023-05-10T09:52:49.700Z,17.12
2023-05-10T09:54:50.251Z,17.35
2023-05-10T09:56:49.828Z,17.35
2023-05-10T09:58:49.481Z,17.26
2023-05-10T10:00:50.036Z,17.30
2023-05-10T10:02:49.654Z,17.29
2023-05-10T10:04:49.433Z,17.33
2023-05-10T10:06:50.082Z,17.47
2023-05-10T10:08:49.653Z,17.66
2023-05-10T10:10:51.288Z,17.62
2023-05-10T10:12:49.848Z,17.36
2023-05-10T10:14:49.386Z,17.36
2023-05-10T10:17:05.532Z,17.30
2023-05-10T10:18:49.423Z,17.42
2023-05-10T10:20:50.113Z,17.54
2023-05-10T10:22:49.729Z,17.49
2023-05-10T10:24:49.342Z,17.66
2023-05-10T10:26:49.936Z,17.93
2023-05-10T10:28:49.564Z,18.21
2023-05-10T10:30:50.153Z,18.4
2023-05-10T10:32:49.833Z,18.38
2023-05-10T10:34:49.524Z,18.47
2023-05-10T10:36:50.101Z,18.47
2023-05-10T10:38:49.701Z,18.14
2023-05-10T10:40:50.289Z,18.14
2023-05-10T10:42:49.847Z,18.25
2023-05-10T10:44:49.417Z,18.03
2023-05-10T10:46:50.112Z,17.97
2023-05-10T10:48:49.669Z,17.86
2023-05-10T10:50:50.203Z,17.67
2023-05-10T10:52:49.751Z,17.57
2023-05-10T10:54:49.389Z,17.33
2023-05-10T10:56:49.955Z,17.25
2023-05-10T10:58:49.494Z,17.21
2023-05-10T11:00:50.194Z,17.16
2023-05-10T11:02:49.892Z,17.19
2023-05-10T11:04:49.605Z,17.27
2023-05-10T11:06:50.236Z,17.26
2023-05-10T11:08:49.794Z,17.27
2023-05-10T11:10:49.363Z,17.32
2023-05-10T11:12:49.908Z,17.25
2023-05-10T11:14:49.474Z,17.19
2023-05-10T11:16:50.170Z,17.19
2023-05-10T11:18:50.371Z,17.12
2023-05-10T11:20:50.015Z,17.27
2023-05-10T11:22:49.542Z,17.29
2023-05-10T11:24:50.231Z,17.16
2023-05-10T11:26:49.863Z,17.16
2023-05-10T11:28:49.481Z,17.32
2023-05-10T11:30:50.199Z,17.25
2023-05-10T11:32:50.004Z,17.29
2023-05-10T11:34:49.615Z,17.27
2023-05-10T11:36:50.213Z,17.46
2023-05-10T11:38:49.809Z,17.22
2023-05-10T11:40:50.327Z,17.27
2023-05-10T11:42:49.860Z,17.21
2023-05-10T11:44:49.507Z,17.22
2023-05-10T11:46:50.150Z,17.27
2023-05-10T11:48:49.769Z,17.42
2023-05-10T11:50:49.419Z,17.42
2023-05-10T11:52:50.015Z,17.37
2023-05-10T11:54:49.542Z,17.35
2023-05-10T11:56:50.130Z,17.50
2023-05-10T11:58:49.671Z,17.56
2023-05-10T12:00:50.242Z,17.63
2023-05-10T12:02:49.990Z,17.89
2023-05-10T12:04:49.876Z,18.04
2023-05-10T12:06:49.569Z,18.14
2023-05-10T12:08:50.160Z,18.10
2023-05-10T12:10:49.672Z,17.99
2023-05-10T12:12:50.213Z,18.14
2023-05-10T12:14:49.856Z,18.28
2023-05-10T12:16:49.450Z,18.08
2023-05-10T12:18:50.110Z,17.77
2023-05-10T12:20:49.739Z,17.77
2023-05-10T12:22:50.314Z,17.77
2023-05-10T12:24:49.893Z,17.65
2023-05-10T12:26:49.461Z,17.69
2023-05-10T12:28:49.982Z,17.90
2023-05-10T12:30:49.579Z,17.90
2023-05-10T12:32:50.206Z,18.07
2023-05-10T12:34:49.894Z,18.25
2023-05-10T12:36:49.566Z,18.41
2023-05-10T12:38:50.159Z,18.41
2023-05-10T12:40:49.773Z,18.43
2023-05-10T12:42:49.386Z,18.52
2023-05-10T12:44:50.025Z,18.66
2023-05-10T12:46:49.623Z,18.66
2023-05-10T12:48:53.214Z,18.10
2023-05-10T12:50:50.109Z,18.08
2023-05-10T12:52:49.639Z,18.10
2023-05-10T12:54:50.199Z,18.03
2023-05-10T12:56:49.732Z,18.03
2023-05-10T12:58:50.274Z,18.18
2023-05-10T13:00:49.812Z,18.24
2023-05-10T13:02:49.398Z,18.25
2023-05-10T13:04:51.133Z,18.23
2023-05-10T13:06:49.840Z,18.17
2023-05-10T13:08:49.399Z,18.07
2023-05-10T13:10:49.966Z,17.79
2023-05-10T13:12:49.480Z,17.70
2023-05-10T13:14:50.048Z,17.69
2023-05-10T13:16:49.623Z,17.62
2023-05-10T13:18:50.315Z,17.50
2023-05-10T13:20:49.977Z,17.63
2023-05-10T13:22:50.640Z,17.67
2023-05-10T13:24:49.750Z,17.53
2023-05-10T13:26:50.305Z,17.57
2023-05-10T13:28:50.007Z,17.56
2023-05-10T13:30:49.600Z,17.56
2023-05-10T13:32:50.174Z,17.63
2023-05-10T13:34:49.775Z,17.59
2023-05-10T13:36:50.314Z,17.54
2023-05-10T13:38:49.862Z,17.43
2023-05-10T13:40:49.415Z,17.42
2023-05-10T13:42:49.975Z,17.49
2023-05-10T13:44:49.510Z,17.50
2023-05-10T13:46:50.212Z,17.47
2023-05-10T13:48:49.823Z,17.26
2023-05-10T13:50:49.382Z,17.09
2023-05-10T13:52:49.992Z,17.02
2023-05-10T13:54:49.761Z,16.89
2023-05-10T13:56:50.354Z,16.88
2023-05-10T13:58:49.922Z,16.72
2023-05-10T14:00:49.512Z,16.67
2023-05-10T14:02:50.164Z,16.57
2023-05-10T14:04:49.859Z,16.51
2023-05-10T14:06:49.433Z,16.44
2023-05-10T14:08:50.088Z,16.40
2023-05-10T14:10:49.657Z,16.28
2023-05-10T14:12:50.219Z,16.27
2023-05-10T14:14:49.769Z,16.31
2023-05-10T14:16:50.367Z,16.24
2023-05-10T14:18:50.109Z,16.17
2023-05-10T14:20:49.821Z,16.21
2023-05-10T14:22:49.330Z,16.24
2023-05-10T14:24:49.940Z,16.35
2023-05-10T14:26:49.594Z,16.38
2023-05-10T14:28:50.154Z,16.38
2023-05-10T14:30:49.722Z,16.40
2023-05-10T14:32:50.324Z,16.38
2023-05-10T14:34:49.904Z,16.47
2023-05-10T14:36:49.467Z,16.47
2023-05-10T14:38:50.017Z,16.50
2023-05-10T14:40:49.558Z,16.55
2023-05-10T14:42:50.170Z,16.54
2023-05-10T14:44:49.829Z,16.67
2023-05-10T14:46:49.374Z,16.75
2023-05-10T14:48:49.982Z,16.78
2023-05-10T14:50:49.566Z,16.88
2023-05-10T14:52:50.144Z,16.9
2023-05-10T14:54:49.756Z,16.9
2023-05-10T14:56:49.356Z,16.9
2023-05-10T14:58:49.965Z,16.9
2023-05-10T15:00:49.494Z,16.85
2023-05-10T15:02:49.761Z,16.64
2023-05-10T15:04:49.945Z,16.60
2023-05-10T15:06:49.840Z,16.51
2023-05-10T15:08:49.459Z,16.38
2023-05-10T15:10:49.990Z,16.04
2023-05-10T15:12:49.525Z,15.89
2023-05-10T15:14:50.040Z,15.62
2023-05-10T15:16:49.610Z,15.21
2023-05-10T15:18:50.164Z,15.21
2023-05-10T15:20:49.665Z,14.94
2023-05-10T15:22:50.144Z,14.79
2023-05-10T15:24:49.718Z,14.57
2023-05-10T15:26:50.305Z,14.49
2023-05-10T15:28:49.828Z,14.43
2023-05-10T15:30:49.435Z,14.37
2023-05-10T15:32:50.005Z,14.35
2023-05-10T15:34:49.639Z,14.33
2023-05-10T15:36:50.166Z,14.34
2023-05-10T15:38:49.734Z,14.31
2023-05-10T15:40:50.228Z,14.25
2023-05-10T15:42:49.851Z,14.24
2023-05-10T15:44:49.485Z,14.34
2023-05-10T15:46:50.221Z,14.37
2023-05-10T15:48:49.861Z,14.31
2023-05-10T15:50:49.510Z,14.33
2023-05-10T15:52:50.057Z,14.35
2023-05-10T15:54:49.578Z,14.45
2023-05-10T15:56:50.152Z,14.47
2023-05-10T15:58:49.762Z,14.60
2023-05-10T16:00:49.462Z,14.64
2023-05-10T16:02:50.239Z,14.70
2023-05-10T16:04:49.891Z,14.74
2023-05-10T16:06:49.480Z,14.85
2023-05-10T16:08:50.065Z,14.89
2023-05-10T16:10:49.671Z,14.9
2023-05-10T16:12:50.187Z,15.0
2023-05-10T16:14:49.713Z,15.0
2023-05-10T16:16:50.320Z,15.0
2023-05-10T16:18:49.966Z,15.1
2023-05-10T16:20:49.653Z,15.1
2023-05-10T16:22:50.210Z,15.1
2023-05-10T16:24:49.764Z,15.2
2023-05-10T16:26:50.334Z,15.2
2023-05-10T16:28:50.057Z,15.3
2023-05-10T16:30:49.644Z,15.3
2023-05-10T16:32:50.301Z,15.3
2023-05-10T16:34:49.913Z,15.3
2023-05-10T16:36:49.458Z,15.3
2023-05-10T16:38:50.109Z,15.2
2023-05-10T16:40:50.063Z,15.22
2023-05-10T16:42:49.601Z,15.21
2023-05-10T16:44:50.178Z,15.17
2023-05-10T16:46:49.678Z,15.05
2023-05-10T16:48:50.247Z,15.08
2023-05-10T16:50:49.844Z,15.11
2023-05-10T16:52:49.466Z,15.06
2023-05-10T16:54:49.977Z,15.05
2023-05-10T16:56:49.530Z,14.99
2023-05-10T16:58:50.026Z,14.98
2023-05-10T17:00:49.593Z,14.99
2023-05-10T17:02:50.193Z,15.01
2023-05-10T17:04:49.967Z,14.96
2023-05-10T17:06:49.522Z,14.95
2023-05-10T17:08:50.075Z,14.89
2023-05-10T17:10:49.616Z,14.94
2023-05-10T17:12:50.166Z,14.94
2023-05-10T17:14:49.706Z,14.95
2023-05-10T17:16:50.326Z,14.95
2023-05-10T17:18:49.951Z,14.94
2023-05-10T17:20:49.539Z,14.94
2023-05-10T17:22:50.131Z,14.94
2023-05-10T17:24:49.717Z,14.94
2023-05-10T17:26:50.318Z,14.95
2023-05-10T17:28:49.973Z,14.88
2023-05-10T17:30:49.521Z,14.85
2023-05-10T17:32:50.126Z,14.84
2023-05-10T17:34:49.787Z,14.84
2023-05-10T17:36:49.357Z,14.78
2023-05-10T17:38:49.909Z,14.78
2023-05-10T17:40:49.505Z,14.77
2023-05-10T17:42:50.108Z,14.74
2023-05-10T17:44:49.681Z,14.75
2023-05-10T17:46:50.228Z,14.75
2023-05-10T17:48:49.940Z,14.71
2023-05-10T17:50:49.442Z,14.7
2023-05-10T17:52:49.970Z,14.7
2023-05-10T17:54:49.493Z,14.7
2023-05-10T17:56:50.169Z,14.7
2023-05-10T17:58:49.738Z,14.7
2023-05-10T18:00:50.346Z,14.70
2023-05-10T18:02:49.947Z,14.67
2023-05-10T18:04:49.707Z,14.63
2023-05-10T18:06:49.428Z,14.6
2023-05-10T18:08:49.961Z,14.60
2023-05-10T18:10:49.565Z,14.6
2023-05-10T18:12:50.157Z,14.6
2023-05-10T18:14:49.683Z,14.6
2023-05-10T18:16:50.341Z,14.60
2023-05-10T18:18:50.018Z,14.5
2023-05-10T18:20:49.547Z,14.5
2023-05-10T18:22:50.125Z,14.5
2023-05-10T18:24:49.701Z,14.47
2023-05-10T18:26:50.273Z,14.38
2023-05-10T18:28:49.820Z,14.34
2023-05-10T18:30:49.434Z,14.35
2023-05-10T18:32:50.027Z,14.33
2023-05-10T18:34:49.652Z,14.33
2023-05-10T18:36:50.236Z,14.33
2023-05-10T18:38:49.776Z,14.21
2023-05-10T18:40:50.274Z,14.19
2023-05-10T18:42:49.793Z,14.19
2023-05-10T18:44:49.413Z,14.17
2023-05-10T18:46:51.002Z,14.16
2023-05-10T18:48:49.641Z,14.14
2023-05-10T18:50:50.193Z,14.14
2023-05-10T18:52:49.815Z,14.12
2023-05-10T18:54:49.406Z,14.06
2023-05-10T18:56:50.003Z,14.02
2023-05-10T18:58:49.545Z,14.00
2023-05-10T19:00:50.133Z,13.97
2023-05-10T19:02:49.865Z,13.94
2023-05-10T19:04:49.572Z,13.92
2023-05-10T19:06:50.172Z,13.86
2023-05-10T19:08:49.735Z,13.84
2023-05-10T19:10:49.347Z,13.82
2023-05-10T19:12:49.916Z,13.80
2023-05-10T19:14:49.473Z,13.77
2023-05-10T19:16:51.663Z,13.79
2023-05-10T19:18:49.557Z,13.73
2023-05-10T19:20:50.116Z,13.68
2023-05-10T19:23:08.301Z,13.68
2023-05-10T19:24:50.111Z,13.65
2023-05-10T19:26:49.708Z,13.65
2023-05-10T19:28:50.253Z,13.63
2023-05-10T19:30:49.911Z,13.63
2023-05-10T19:32:49.597Z,13.65
2023-05-10T19:34:50.884Z,13.65
2023-05-10T19:36:49.479Z,13.62
2023-05-10T19:38:50.066Z,13.63
2023-05-10T19:40:49.581Z,13.63
2023-05-10T19:42:50.161Z,13.63
2023-05-10T19:44:49.698Z,13.65
2023-05-10T19:46:50.255Z,13.63
2023-05-10T19:48:50.133Z,13.63
2023-05-10T19:50:49.709Z,13.65
2023-05-10T19:52:50.261Z,13.66
2023-05-10T19:54:49.815Z,13.69
2023-05-10T19:56:49.385Z,13.69
2023-05-10T19:58:49.921Z,13.70
2023-05-10T20:00:49.558Z,13.69
2023-05-10T20:02:50.152Z,13.72
2023-05-10T20:04:49.745Z,13.65
2023-05-10T20:06:49.387Z,13.65
2023-05-10T20:08:49.962Z,13.66
2023-05-10T20:10:49.509Z,13.65
2023-05-10T20:12:50.044Z,13.62
2023-05-10T20:14:49.641Z,13.58
2023-05-10T20:16:50.399Z,13.58
2023-05-10T20:18:50.975Z,13.56
2023-05-10T20:20:49.777Z,13.52
2023-05-10T20:22:50.331Z,13.53
2023-05-10T20:24:49.898Z,13.56
2023-05-10T20:26:49.531Z,13.52
2023-05-10T20:28:50.130Z,13.53
2023-05-10T20:32:50.292Z,13.53
2023-05-10T20:34:49.946Z,13.60
2023-05-10T20:36:49.624Z,13.59
2023-05-10T20:38:50.145Z,13.56
2023-05-10T20:40:49.773Z,13.60
2023-05-10T20:42:49.375Z,13.56
2023-05-10T20:44:49.904Z,13.55
2023-05-10T20:46:49.501Z,13.50
2023-05-10T20:48:50.067Z,13.46
2023-05-10T20:50:49.674Z,13.42
2023-05-10T20:52:49.706Z,13.43
2023-05-10T20:54:50.278Z,13.45
2023-05-10T20:56:49.874Z,13.45
2023-05-10T20:58:49.410Z,13.45
2023-05-10T21:00:49.906Z,13.46
2023-05-10T21:02:49.576Z,13.46
2023-05-10T21:04:50.312Z,13.49
2023-05-10T21:06:49.914Z,13.48
2023-05-10T21:08:49.423Z,13.46
2023-05-10T21:10:50.001Z,13.43
2023-05-10T21:12:49.715Z,13.42
2023-05-10T21:14:50.296Z,13.38
2023-05-10T21:16:49.876Z,13.38
2023-05-10T21:18:49.450Z,13.35
2023-05-10T21:20:50.023Z,13.35
2023-05-10T21:22:49.647Z,13.32
2023-05-10T21:24:50.217Z,13.32
2023-05-10T21:26:49.828Z,13.28
2023-05-10T21:28:49.365Z,13.29
2023-05-10T21:30:49.991Z,13.35
2023-05-10T21:32:49.558Z,13.32
2023-05-10T21:34:50.178Z,13.35
2023-05-10T21:36:49.763Z,13.35
2023-05-10T21:38:50.359Z,13.36
2023-05-10T21:40:49.918Z,13.35
2023-05-10T21:42:49.667Z,13.36
2023-05-10T21:44:50.277Z,13.36
2023-05-10T21:46:49.873Z,13.38
2023-05-10T21:48:49.421Z,13.35
2023-05-10T21:50:49.968Z,13.38
2023-05-10T21:52:49.472Z,13.36
2023-05-10T21:54:50.061Z,13.35
2023-05-10T21:56:49.661Z,13.32
2023-05-10T21:58:50.202Z,13.34
2023-05-10T22:00:49.846Z,13.28
2023-05-10T22:02:49.532Z,13.25
2023-05-10T22:04:50.216Z,13.25
2023-05-10T22:06:49.771Z,13.21
2023-05-10T22:08:50.330Z,13.21
2023-05-10T22:10:49.862Z,13.16
2023-05-10T22:12:49.384Z,13.21
2023-05-10T22:14:56.537Z,13.21
2023-05-10T22:16:49.534Z,13.21
2023-05-10T22:18:50.171Z,13.15
2023-05-10T22:20:49.842Z,13.12
2023-05-10T22:22:49.420Z,13.09
2023-05-10T22:24:49.922Z,13.11
2023-05-10T22:26:49.534Z,13.11
2023-05-10T22:28:50.084Z,13.08
2023-05-10T22:30:49.710Z,13.11
2023-05-10T22:32:50.275Z,13.06
2023-05-10T22:34:49.911Z,13.06
2023-05-10T22:36:49.567Z,13.05
2023-05-10T22:38:50.176Z,13.04
2023-05-10T22:40:49.789Z,13.05
2023-05-10T22:42:49.355Z,13.01
2023-05-10T22:44:49.958Z,13.02
2023-05-10T22:46:49.652Z,13.04
2023-05-10T22:48:50.186Z,12.99
2023-05-10T22:50:49.758Z,12.99
2023-05-10T22:52:50.258Z,12.99
2023-05-10T22:54:49.860Z,12.98
2023-05-10T22:56:49.420Z,12.94
2023-05-10T22:58:49.978Z,12.91
2023-05-10T23:00:49.670Z,12.85
2023-05-10T23:02:50.188Z,12.90
2023-05-10T23:04:49.838Z,12.85
2023-05-10T23:06:49.455Z,12.84
2023-05-10T23:08:50.040Z,12.78
2023-05-10T23:10:49.598Z,12.84
2023-05-10T23:12:50.180Z,12.84
2023-05-10T23:14:49.703Z,12.87
2023-05-10T23:16:50.260Z,12.88
2023-05-10T23:18:49.845Z,12.85
2023-05-10T23:20:49.557Z,12.84
2023-05-10T23:22:50.137Z,12.80
2023-05-10T23:24:49.701Z,12.81
2023-05-10T23:26:50.289Z,12.75
2023-05-10T23:28:49.900Z,12.75
2023-05-10T23:30:49.508Z,12.75
2023-05-10T23:32:50.090Z,12.71
2023-05-10T23:34:49.813Z,12.71
2023-05-10T23:36:49.420Z,12.73
2023-05-10T23:38:49.990Z,12.73
2023-05-10T23:40:49.544Z,12.70
2023-05-10T23:42:50.199Z,12.70
2023-05-10T23:44:49.802Z,12.71
2023-05-10T23:46:49.394Z,12.70
2023-05-10T23:48:50.009Z,12.67
2023-05-10T23:50:49.622Z,12.65
2023-05-10T23:52:50.178Z,12.61
2023-05-10T23:54:49.800Z,12.60
2023-05-10T23:56:49.355Z,12.61
2023-05-10T23:58:49.945Z,12.54
